1NY9 weather

CLOSED Caughdenoy Airport
Caughdenoy, New York, United States

Public forecast

Using degrees Fahrenheit for public forecast. Weather courtesy of forecast.io.

Closest aviation weather report (METAR) to Caughdenoy Airport

Closest report is Syracuse Hancock International Airport, 10.0 nm (18.4 km) SSE. Retrieved 2019/12/09 08:54 UTC (59 minutes ago):

KSYR 090854Z 18008KT 10SM BKN060 OVC080 05/M02 A3006 RMK AO2 SLP177 T00501022 58011

Closest aviation forecast (TAF) to Caughdenoy Airport

Closest forecast is Syracuse Hancock International Airport, 10.0 nm (18.4 km) SSE. Retrieved 2019/12/09 06:40 UTC (3 hours ago):

TAF KSYR 090538Z 0906/1006 19012KT P6SM BKN050 WS020/20040KT FM091300 16006KT 3SM -RA OVC035 FM091500 16006KT 2SM -RA OVC023 WS020/20030KT FM091900 15012G20KT 3SM -RA BR OVC011 WS020/21050KT FM100200 20010KT 3SM -RA BR OVC019 WS020/22045KT